Time;durP1;ratioP1;P1;durP2;ratioP2;P2;SDS_P1;SDS_P2;PMS_P1;PMS_P2;Temp;Humidity;BMP_temperature;BMP_pressure;BME280_temperature;BME280_humidity;BME280_pressure;Samples;Min_cycle;Max_cycle;Signal;HPM_P1;HPM_P2
2022/11/22 00:00:16;;;;;;;43.80;20.25;;;;;;;-2.65;100.00;151890.00;5014200;28;20051;-74
2022/11/22 00:02:42;;;;;;;43.83;21.13;;;;;;;-2.59;100.00;151906.50;5048860;28;20052;-74
2022/11/22 00:05:08;;;;;;;44.85;22.33;;;;;;;-2.55;100.00;151916.66;5047807;28;20033;-75
2022/11/22 00:07:33;;;;;;;42.13;22.75;;;;;;;-2.51;100.00;151924.31;5037623;28;20065;-74
2022/11/22 00:09:59;;;;;;;43.65;23.17;;;;;;;-2.53;100.00;151920.50;5032746;28;20057;-73
2022/11/22 00:12:27;;;;;;;51.35;24.35;;;;;;;-2.49;100.00;151929.41;5045738;28;20041;-75
2022/11/22 00:14:53;;;;;;;50.50;25.17;;;;;;;-2.42;100.00;151947.19;5032582;28;20033;-75
2022/11/22 00:17:18;;;;;;;51.85;25.15;;;;;;;-2.44;100.00;151943.38;5048668;28;20339;-74
2022/11/22 00:19:44;;;;;;;50.65;24.20;;;;;;;-2.44;100.00;151942.13;5042529;28;20037;-75
2022/11/22 00:22:09;;;;;;;52.78;25.98;;;;;;;-2.35;100.00;151966.28;5026271;28;20048;-75
2022/11/22 00:24:35;;;;;;;48.15;24.33;;;;;;;-2.41;100.00;151949.72;5028480;28;20047;-74
2022/11/22 00:27:00;;;;;;;47.28;24.48;;;;;;;-2.39;100.00;151956.09;5024702;28;20481;-75
2022/11/22 00:29:26;;;;;;;48.42;24.38;;;;;;;-2.36;100.00;151963.72;5026369;28;20125;-76
2022/11/22 00:31:52;;;;;;;45.00;22.48;;;;;;;-2.31;100.00;151973.91;5032858;28;20049;-75
2022/11/22 00:34:17;;;;;;;45.67;25.02;;;;;;;-2.35;100.00;151965.00;5032502;28;20544;-73
2022/11/22 00:36:43;;;;;;;45.17;22.80;;;;;;;-2.42;100.00;151947.19;5049331;28;20567;-76
2022/11/22 00:39:08;;;;;;;51.20;24.63;;;;;;;-2.45;100.00;151940.88;5046492;28;20043;-75
2022/11/22 00:41:34;;;;;;;49.17;24.35;;;;;;;-2.43;100.00;151945.94;5031962;28;20143;-75
2022/11/22 00:44:00;;;;;;;48.63;25.00;;;;;;;-2.40;100.00;151952.28;5032626;28;20044;-75
2022/11/22 00:46:25;;;;;;;45.55;23.50;;;;;;;-2.43;100.00;151944.63;5031288;28;20049;-77
2022/11/22 00:48:51;;;;;;;48.35;24.38;;;;;;;-2.44;100.00;151943.38;5033063;28;20500;-75
2022/11/22 00:51:16;;;;;;;49.40;22.80;;;;;;;-2.47;100.00;151935.75;5032405;28;20051;-75
2022/11/22 00:53:42;;;;;;;51.05;25.10;;;;;;;-2.53;100.00;151919.25;5033105;28;20037;-74
2022/11/22 00:56:08;;;;;;;51.17;24.77;;;;;;;-2.48;100.00;151933.22;5015261;28;20114;-76
2022/11/22 00:58:33;;;;;;;50.03;22.88;;;;;;;-2.46;100.00;151937.03;5062157;28;20076;-75
2022/11/22 01:00:59;;;;;;;51.60;25.27;;;;;;;-2.50;100.00;151928.13;5031133;28;20124;-76
2022/11/22 01:03:25;;;;;;;48.75;24.92;;;;;;;-2.52;100.00;151923.06;5029752;28;20473;-75
2022/11/22 01:05:50;;;;;;;49.47;24.15;;;;;;;-2.50;100.00;151928.13;5045413;28;20040;-76
2022/11/22 01:08:16;;;;;;;53.35;25.52;;;;;;;-2.56;100.00;151914.16;5042911;28;20116;-74
2022/11/22 01:10:42;;;;;;;51.17;24.42;;;;;;;-2.47;100.00;151935.75;5031536;28;20037;-75
2022/11/22 01:13:08;;;;;;;52.00;23.92;;;;;;;-2.51;100.00;151924.31;5030233;28;20452;-75
2022/11/22 01:15:35;;;;;;;53.63;25.38;;;;;;;-2.54;100.00;151917.97;5028124;28;20588;-75
2022/11/22 01:18:01;;;;;;;54.83;26.90;;;;;;;-2.54;100.00;151917.97;5027365;28;20203;-75
2022/11/22 01:20:26;;;;;;;49.85;24.27;;;;;;;-2.56;100.00;151914.16;5063926;28;20135;-75
2022/11/22 01:22:52;;;;;;;54.33;24.95;;;;;;;-2.55;100.00;151915.41;5026132;28;20411;-75
2022/11/22 01:25:18;;;;;;;50.58;25.38;;;;;;;-2.58;100.00;151909.09;5029338;28;20036;-75
2022/11/22 01:27:44;;;;;;;48.97;22.52;;;;;;;-2.60;100.00;151904.00;5043078;28;20062;-74
2022/11/22 01:30:10;;;;;;;55.97;26.65;;;;;;;-2.64;100.00;151892.53;5024409;28;20040;-75
2022/11/22 01:32:35;;;;;;;56.53;25.90;;;;;;;-2.60;100.00;151902.69;5031582;28;20036;-74
2022/11/22 01:35:01;;;;;;;55.28;24.98;;;;;;;-2.58;100.00;151909.09;5029087;28;20037;-75
2022/11/22 01:37:27;;;;;;;54.50;25.58;;;;;;;-2.53;100.00;151920.50;5021403;28;20041;-75
2022/11/22 01:39:52;;;;;;;55.63;25.40;;;;;;;-2.59;100.00;151906.50;5031644;28;20086;-75
2022/11/22 01:42:18;;;;;;;58.42;25.25;;;;;;;-2.54;100.00;151917.97;5046879;28;20040;-75
2022/11/22 01:44:47;;;;;;;54.47;25.30;;;;;;;-2.54;100.00;151917.97;5031447;28;20462;-76
2022/11/22 01:47:16;;;;;;;58.15;24.65;;;;;;;-2.55;100.00;151916.66;5042096;28;20086;-75
2022/11/22 01:49:56;;;;;;;55.90;25.08;;;;;;;-2.51;100.00;151925.56;5042440;28;20041;-75
2022/11/22 01:52:27;;;;;;;59.53;25.25;;;;;;;-2.51;100.00;151925.56;5031776;28;20146;-75
2022/11/22 01:54:59;;;;;;;54.85;25.50;;;;;;;-2.48;100.00;151933.22;5064917;28;20044;-76
2022/11/22 01:57:30;;;;;;;53.77;23.37;;;;;;;-2.50;100.00;151928.13;5033580;28;20839;-75
2022/11/22 02:00:00;;;;;;;57.95;27.33;;;;;;;-2.48;100.00;151933.22;5029567;28;20515;-74
2022/11/22 02:02:26;;;;;;;58.25;25.02;;;;;;;-2.51;100.00;151925.56;5012633;28;20065;-73
2022/11/22 02:04:55;;;;;;;62.35;28.25;;;;;;;-2.48;100.00;151931.97;5027934;28;20071;-75
2022/11/22 02:07:26;;;;;;;58.92;25.98;;;;;;;-2.49;100.00;151929.41;5079645;28;20394;-75
2022/11/22 02:09:52;;;;;;;61.60;26.10;;;;;;;-2.48;100.00;151933.22;5030672;28;20487;-75
2022/11/22 02:12:22;;;;;;;57.67;25.45;;;;;;;-2.49;100.00;151929.41;5030178;28;20041;-75
2022/11/22 02:14:48;;;;;;;59.35;26.40;;;;;;;-2.51;100.00;151924.31;5029055;28;20045;-76
2022/11/22 02:17:14;;;;;;;58.53;26.73;;;;;;;-2.50;100.00;151928.13;5047390;28;20118;-75
2022/11/22 02:19:46;;;;;;;56.83;26.70;;;;;;;-2.50;100.00;151928.13;5015297;28;20052;-75
2022/11/22 02:22:24;;;;;;;58.13;24.50;;;;;;;-2.46;100.00;151938.31;5030053;28;20040;-74
2022/11/22 02:24:55;;;;;;;59.63;27.77;;;;;;;-2.48;100.00;151931.97;5048952;28;20282;-75
2022/11/22 02:27:22;;;;;;;55.63;24.48;;;;;;;-2.43;100.00;151944.63;5030262;28;20051;-75
2022/11/22 02:29:48;;;;;;;54.17;25.17;;;;;;;-2.45;100.00;151940.88;5029359;28;20037;-77
2022/11/22 02:32:14;;;;;;;55.78;26.88;;;;;;;-2.43;100.00;151945.94;5038762;28;20400;-76
2022/11/22 02:34:49;;;;;;;57.22;26.10;;;;;;;-2.43;100.00;151944.63;5030773;28;20040;-75
2022/11/22 02:37:24;;;;;;;61.20;28.83;;;;;;;-2.38;100.00;151957.38;5046349;28;20028;-76
2022/11/22 02:40:07;;;;;;;59.10;27.63;;;;;;;-2.40;100.00;151953.53;5030622;28;20036;-75
2022/11/22 02:42:34;;;;;;;55.88;26.35;;;;;;;-2.42;100.00;151948.47;5029311;28;20079;-75
2022/11/22 02:45:00;;;;;;;59.75;26.75;;;;;;;-2.38;100.00;151958.63;5046602;28;20041;-76
2022/11/22 02:47:26;;;;;;;63.78;28.40;;;;;;;-2.37;100.00;151961.19;5019171;28;20040;-75
2022/11/22 02:49:54;;;;;;;59.10;28.10;;;;;;;-2.41;100.00;151949.72;5042025;28;20037;-75
2022/11/22 02:52:20;;;;;;;50.38;24.48;;;;;;;-2.40;100.00;151952.28;5012740;28;20037;-75
2022/11/22 02:54:46;;;;;;;55.22;25.42;;;;;;;-2.39;100.00;151954.84;5014379;28;20092;-74
2022/11/22 02:57:12;;;;;;;54.33;27.27;;;;;;;-2.35;100.00;151966.28;5046343;28;20687;-75
2022/11/22 02:59:37;;;;;;;58.78;27.13;;;;;;;-2.37;100.00;151961.19;5047681;28;20032;-75
2022/11/22 03:02:03;;;;;;;55.80;24.35;;;;;;;-2.36;100.00;151962.44;5028806;28;20052;-75
2022/11/22 03:04:29;;;;;;;57.47;25.70;;;;;;;-2.35;100.00;151965.00;5028902;28;20056;-75
2022/11/22 03:06:56;;;;;;;62.20;28.38;;;;;;;-2.37;100.00;151961.19;5028362;28;20544;-76
2022/11/22 03:09:23;;;;;;;58.83;27.60;;;;;;;-2.36;100.00;151962.44;5023841;28;20901;-75
2022/11/22 03:11:49;;;;;;;55.70;27.42;;;;;;;-2.36;100.00;151963.72;5029988;28;20285;-75
2022/11/22 03:14:15;;;;;;;59.30;28.70;;;;;;;-2.35;100.00;151965.00;5029877;28;20044;-74
2022/11/22 03:16:42;;;;;;;62.67;29.05;;;;;;;-2.32;100.00;151971.34;5030164;28;20112;-75
2022/11/22 03:19:08;;;;;;;58.65;26.05;;;;;;;-2.35;100.00;151966.28;5012930;28;20037;-75
2022/11/22 03:21:34;;;;;;;57.72;25.75;;;;;;;-2.31;100.00;151975.19;5036258;28;20406;-75
2022/11/22 03:24:00;;;;;;;54.38;25.40;;;;;;;-2.31;100.00;151973.91;5005721;28;20030;-74
2022/11/22 03:26:25;;;;;;;53.60;25.35;;;;;;;-2.25;100.00;151990.41;5022758;28;20124;-75
2022/11/22 03:28:51;;;;;;;53.75;26.02;;;;;;;-2.25;100.00;151990.41;5045222;28;20056;-76
2022/11/22 03:31:17;;;;;;;56.92;25.55;;;;;;;-2.25;100.00;151989.16;5026627;28;20087;-74
2022/11/22 03:33:42;;;;;;;56.35;26.20;;;;;;;-2.24;100.00;151992.97;5027165;28;20049;-75
2022/11/22 03:36:08;;;;;;;54.58;25.70;;;;;;;-2.31;100.00;151973.91;5046304;28;20421;-76
2022/11/22 03:38:35;;;;;;;55.47;26.00;;;;;;;-2.26;100.00;151987.91;5030697;28;20502;-75
2022/11/22 03:41:00;;;;;;;57.30;27.30;;;;;;;-2.27;100.00;151984.06;5027461;28;20021;-75
2022/11/22 03:43:26;;;;;;;56.78;26.10;;;;;;;-2.24;100.00;151992.97;5041122;28;20474;-75
2022/11/22 03:45:52;;;;;;;56.60;27.85;;;;;;;-2.23;100.00;151995.50;5067172;28;20029;-75
2022/11/22 03:48:18;;;;;;;54.50;27.23;;;;;;;-2.20;100.00;152003.16;5025621;28;20033;-75
2022/11/22 03:50:44;;;;;;;54.13;28.05;;;;;;;-2.19;100.00;152005.66;5029504;28;21789;-75
2022/11/22 03:53:10;;;;;;;59.20;28.98;;;;;;;-2.19;100.00;152004.41;5026811;28;20045;-76
2022/11/22 03:55:36;;;;;;;54.72;25.52;;;;;;;-2.16;100.00;152012.06;5041838;28;20037;-75
2022/11/22 03:58:02;;;;;;;57.83;24.77;;;;;;;-2.19;100.00;152004.41;5013070;28;20059;-75
2022/11/22 04:00:28;;;;;;;52.45;25.73;;;;;;;-2.19;100.00;152004.41;5043509;28;20151;-75
2022/11/22 04:02:54;;;;;;;56.17;26.23;;;;;;;-2.18;100.00;152006.97;5026100;28;20033;-76
2022/11/22 04:05:20;;;;;;;56.90;25.60;;;;;;;-2.18;100.00;152008.22;5036902;28;20398;-76
2022/11/22 04:07:46;;;;;;;52.78;25.80;;;;;;;-2.16;100.00;152013.31;5045218;28;20056;-76
2022/11/22 04:10:11;;;;;;;53.00;26.02;;;;;;;-2.20;100.00;152001.88;5030879;28;20029;-75
2022/11/22 04:12:37;;;;;;;53.53;25.10;;;;;;;-2.07;100.00;152034.94;5033025;28;20041;-76
2022/11/22 04:15:06;;;;;;;58.63;26.45;;;;;;;-2.11;100.00;152024.78;5032818;28;20040;-74
2022/11/22 04:17:39;;;;;;;54.55;26.67;;;;;;;-2.08;100.00;152031.13;5033400;28;20062;-75
2022/11/22 04:23:11;;;;;;;55.47;24.85;;;;;;;-2.05;100.00;152038.78;5027119;28;20041;-75
2022/11/22 04:25:40;;;;;;;55.95;26.00;;;;;;;-2.01;100.00;152048.94;5031991;28;20041;-75
2022/11/22 04:28:07;;;;;;;57.30;27.88;;;;;;;-2.00;100.00;152052.75;5026634;28;20041;-76
2022/11/22 04:33:17;;;;;;;53.13;25.50;;;;;;;-2.00;100.00;152051.44;5045900;28;20035;-75
2022/11/22 04:35:44;;;;;;;56.15;27.73;;;;;;;-1.98;100.00;152056.53;5049082;28;20037;-76
2022/11/22 04:38:10;;;;;;;55.85;25.25;;;;;;;-1.96;100.00;152061.63;5026243;28;20882;-75
2022/11/22 04:40:37;;;;;;;54.65;27.00;;;;;;;-1.95;100.00;152064.19;5032332;28;20075;-74
2022/11/22 04:45:49;;;;;;;59.28;28.15;;;;;;;-1.96;100.00;152061.63;5041591;28;20044;-76
2022/11/22 04:48:16;;;;;;;58.58;27.55;;;;;;;-1.92;100.00;152071.81;5062193;28;20029;-75
2022/11/22 04:53:28;;;;;;;59.05;29.55;;;;;;;-1.90;100.00;152075.59;5079763;28;20044;-76
2022/11/22 04:55:54;;;;;;;51.83;26.50;;;;;;;-1.88;100.00;152080.72;5017015;28;20040;-76
2022/11/22 04:58:20;;;;;;;55.50;26.92;;;;;;;-1.87;100.00;152084.50;5028214;28;20037;-75
2022/11/22 05:00:47;;;;;;;57.20;29.33;;;;;;;-1.83;100.00;152093.41;5027059;28;20056;-74
2022/11/22 05:03:13;;;;;;;56.22;28.52;;;;;;;-1.79;100.00;152103.59;5040301;28;20493;-74
2022/11/22 05:05:40;;;;;;;58.67;29.92;;;;;;;-1.79;100.00;152103.59;5031645;28;20090;-75
2022/11/22 05:08:08;;;;;;;59.00;28.75;;;;;;;-1.72;100.00;152120.13;5045032;28;20033;-74
2022/11/22 05:13:21;;;;;;;58.75;28.13;;;;;;;-1.63;100.00;152144.31;5030265;28;20136;-75
2022/11/22 05:15:47;;;;;;;58.85;29.60;;;;;;;-1.61;100.00;152148.13;5031533;28;20078;-74
2022/11/22 05:18:13;;;;;;;56.05;28.13;;;;;;;-1.60;100.00;152150.63;5046910;28;20037;-75
2022/11/22 05:20:38;;;;;;;55.38;29.58;;;;;;;-1.63;100.00;152143.03;5030376;28;20033;-75
2022/11/22 05:25:49;;;;;;;55.38;26.42;;;;;;;-1.63;100.00;152144.31;5034073;28;20120;-74
2022/11/22 05:28:14;;;;;;;53.67;28.63;;;;;;;-1.59;100.00;152154.47;5043434;28;20453;-75
2022/11/22 05:30:40;;;;;;;53.72;27.77;;;;;;;-1.59;100.00;152154.47;5008968;28;20045;-75
2022/11/22 05:33:06;;;;;;;56.25;31.80;;;;;;;-1.55;100.00;152162.13;5006740;28;20043;-76
2022/11/22 05:35:32;;;;;;;54.47;28.50;;;;;;;-1.51;100.00;152173.53;5032092;28;20029;-75
2022/11/22 05:37:58;;;;;;;55.55;28.83;;;;;;;-1.51;100.00;152173.53;5026125;28;20029;-75
2022/11/22 05:40:25;;;;;;;50.42;27.23;;;;;;;-1.47;100.00;152183.75;5031466;28;20033;-75
2022/11/22 05:42:50;;;;;;;56.97;27.85;;;;;;;-1.50;100.00;152174.84;5048889;28;20033;-74
2022/11/22 05:45:16;;;;;;;52.40;27.67;;;;;;;-1.45;100.00;152187.53;5026579;28;20068;-77
2022/11/22 05:47:42;;;;;;;58.03;27.85;;;;;;;-1.46;100.00;152185.03;5047797;28;20064;-75
2022/11/22 05:50:08;;;;;;;58.75;30.42;;;;;;;-1.41;100.00;152197.75;5046544;28;20086;-75
2022/11/22 05:52:34;;;;;;;58.58;32.00;;;;;;;-1.44;100.00;152190.09;5023765;28;20044;-75
2022/11/22 05:55:00;;;;;;;60.47;29.83;;;;;;;-1.43;100.00;152192.63;5029950;28;20049;-76
2022/11/22 05:57:26;;;;;;;56.35;28.38;;;;;;;-1.49;100.00;152177.38;5029896;28;20066;-75
2022/11/22 05:59:52;;;;;;;57.50;29.90;;;;;;;-1.43;100.00;152192.63;5026446;28;20829;-75
2022/11/22 06:02:18;;;;;;;56.63;28.88;;;;;;;-1.48;100.00;152181.19;5044494;28;20045;-75
2022/11/22 06:04:43;;;;;;;57.75;30.52;;;;;;;-1.43;100.00;152193.94;5020419;28;20062;-75
2022/11/22 06:07:09;;;;;;;62.20;31.27;;;;;;;-1.48;100.00;152181.19;5042765;28;20095;-74
2022/11/22 06:09:35;;;;;;;57.08;28.77;;;;;;;-1.41;100.00;152199.00;5032305;28;20402;-75
2022/11/22 06:12:00;;;;;;;63.70;31.45;;;;;;;-1.42;100.00;152195.19;5042228;28;20037;-76
2022/11/22 06:14:26;;;;;;;62.53;32.70;;;;;;;-1.41;100.00;152197.75;5041251;28;20502;-75
2022/11/22 06:16:52;;;;;;;59.03;28.17;;;;;;;-1.39;100.00;152202.84;5029634;28;20028;-75
2022/11/22 06:19:18;;;;;;;63.40;28.67;;;;;;;-1.40;100.00;152201.53;5029831;28;20036;-75
2022/11/22 06:21:44;;;;;;;62.20;31.95;;;;;;;-1.40;100.00;152200.28;5030098;28;20402;-74
2022/11/22 06:24:09;;;;;;;62.50;31.70;;;;;;;-1.39;100.00;152202.84;5027743;28;20037;-75
2022/11/22 06:26:35;;;;;;;66.53;30.80;;;;;;;-1.39;100.00;152204.09;5030532;28;20135;-76
2022/11/22 06:29:02;;;;;;;62.60;31.30;;;;;;;-1.39;100.00;152202.84;5041788;28;20032;-75
2022/11/22 06:31:28;;;;;;;58.92;30.95;;;;;;;-1.36;100.00;152210.44;5028090;28;20041;-75
2022/11/22 06:33:56;;;;;;;65.60;32.15;;;;;;;-1.33;100.00;152216.84;5044181;28;20536;-74
2022/11/22 06:36:27;;;;;;;67.20;31.63;;;;;;;-1.32;100.00;152220.59;5027708;28;20041;-76
2022/11/22 06:38:53;;;;;;;66.57;33.80;;;;;;;-1.28;100.00;152229.53;5044571;28;20033;-75
2022/11/22 06:41:21;;;;;;;62.20;29.17;;;;;;;-1.32;100.00;152220.59;5013160;28;20601;-76
2022/11/22 06:43:48;;;;;;;63.65;31.35;;;;;;;-1.29;100.00;152227.00;5036425;28;20116;-76
2022/11/22 06:46:16;;;;;;;73.35;35.55;;;;;;;-1.34;100.00;152215.53;5022429;28;20033;-76
2022/11/22 06:48:42;;;;;;;68.80;35.22;;;;;;;-1.32;100.00;152219.34;5046883;28;20036;-75
2022/11/22 06:51:19;;;;;;;62.60;31.17;;;;;;;-1.28;100.00;152230.81;5025137;28;20230;-75
2022/11/22 06:53:45;;;;;;;67.95;33.17;;;;;;;-1.27;100.00;152232.09;5040553;28;20044;-75
2022/11/22 06:56:14;;;;;;;67.95;32.00;;;;;;;-1.28;100.00;152229.53;5012273;28;20037;-75
2022/11/22 06:58:40;;;;;;;63.75;32.03;;;;;;;-1.29;100.00;152227.00;5030329;28;20075;-74
2022/11/22 07:01:08;;;;;;;68.78;34.25;;;;;;;-1.29;100.00;152228.25;5045122;28;20390;-74
2022/11/22 07:03:35;;;;;;;66.80;33.03;;;;;;;-1.29;100.00;152228.25;5023886;28;20044;-74
2022/11/22 07:06:01;;;;;;;65.97;33.50;;;;;;;-1.26;100.00;152235.91;5029802;28;20048;-75
2022/11/22 07:08:27;;;;;;;63.40;32.05;;;;;;;-1.26;100.00;152235.91;5014689;28;20038;-74
2022/11/22 07:10:53;;;;;;;65.68;32.08;;;;;;;-1.28;100.00;152230.81;5046514;28;20188;-75
2022/11/22 07:13:19;;;;;;;67.82;34.05;;;;;;;-1.28;100.00;152229.53;5013256;28;20045;-76
2022/11/22 07:15:55;;;;;;;69.30;35.67;;;;;;;-1.16;100.00;152258.81;5029713;28;20163;-75
2022/11/22 07:18:21;;;;;;;63.47;31.45;;;;;;;-1.27;100.00;152233.34;5029279;28;20462;-76
2022/11/22 07:20:47;;;;;;;70.13;32.83;;;;;;;-1.31;100.00;152223.19;5029617;28;20132;-74
2022/11/22 07:23:14;;;;;;;65.25;33.67;;;;;;;-1.24;100.00;152239.75;5045343;28;20119;-75
2022/11/22 07:25:47;;;;;;;74.22;35.75;;;;;;;-1.24;100.00;152241.00;5031717;28;20768;-74
2022/11/22 07:28:14;;;;;;;62.22;32.38;;;;;;;-1.22;100.00;152244.81;5012647;28;20025;-75
2022/11/22 07:30:40;;;;;;;68.22;36.00;;;;;;;-1.25;100.00;152238.44;5044140;28;20079;-76
2022/11/22 07:33:06;;;;;;;68.38;33.55;;;;;;;-1.23;100.00;152243.53;5043401;28;20494;-74
2022/11/22 07:35:32;;;;;;;62.45;33.20;;;;;;;-1.24;100.00;152239.75;5060472;28;20037;-75
2022/11/22 07:37:58;;;;;;;67.13;33.42;;;;;;;-1.24;100.00;152241.00;5039446;28;20032;-75
2022/11/22 07:40:24;;;;;;;67.55;34.38;;;;;;;-1.20;100.00;152251.16;5044302;28;20025;-75
2022/11/22 07:42:49;;;;;;;68.78;34.38;;;;;;;-1.15;100.00;152261.34;5043751;28;20114;-74
2022/11/22 07:45:15;;;;;;;64.50;34.33;;;;;;;-1.20;100.00;152249.91;5041980;28;20505;-74
2022/11/22 07:47:41;;;;;;;65.57;32.78;;;;;;;-1.16;100.00;152260.09;5045374;28;20039;-73
2022/11/22 07:50:07;;;;;;;68.00;32.78;;;;;;;-1.18;100.00;152255.00;5027673;28;20395;-75
2022/11/22 07:52:33;;;;;;;66.90;34.33;;;;;;;-1.23;100.00;152242.25;5044366;28;20037;-73
2022/11/22 07:54:59;;;;;;;70.70;36.70;;;;;;;-1.16;100.00;152260.09;5049173;28;20059;-73
2022/11/22 07:57:24;;;;;;;65.35;31.75;;;;;;;-1.10;100.00;152275.34;5048096;28;20041;-74
2022/11/22 07:59:50;;;;;;;63.85;33.55;;;;;;;-1.17;100.00;152257.50;5026373;28;20033;-74
2022/11/22 08:02:16;;;;;;;68.00;37.63;;;;;;;-1.13;100.00;152266.44;5010664;28;20514;-75
2022/11/22 08:04:41;;;;;;;68.63;35.97;;;;;;;-1.13;100.00;152267.72;5031811;28;20052;-75
2022/11/22 08:07:08;;;;;;;71.20;31.05;;;;;;;-1.12;100.00;152269.00;5027537;28;20033;-75
2022/11/22 08:09:34;;;;;;;64.15;33.45;;;;;;;-1.09;100.00;152276.59;5056641;28;20520;-74
2022/11/22 08:12:00;;;;;;;63.05;30.33;;;;;;;-1.05;100.00;152288.06;5015251;28;20043;-75
2022/11/22 08:14:25;;;;;;;64.20;31.35;;;;;;;-1.01;100.00;152297.00;5015152;28;20045;-74
2022/11/22 08:16:51;;;;;;;64.03;36.63;;;;;;;-0.96;100.00;152308.41;5043558;28;20056;-75
2022/11/22 08:19:17;;;;;;;59.28;31.95;;;;;;;-1.00;100.00;152300.81;5026633;28;20115;-73
2022/11/22 08:21:43;;;;;;;58.72;33.67;;;;;;;-0.97;100.00;152307.16;5024436;28;20087;-75
2022/11/22 08:24:09;;;;;;;61.63;35.45;;;;;;;-1.00;100.00;152300.81;5030682;28;20094;-74
2022/11/22 08:26:35;;;;;;;65.05;34.13;;;;;;;-1.01;100.00;152297.00;5032152;28;20032;-74
2022/11/22 08:29:06;;;;;;;65.50;33.25;;;;;;;-1.02;100.00;152294.41;5049853;28;20051;-75
2022/11/22 08:31:31;;;;;;;58.72;31.35;;;;;;;-0.98;100.00;152304.59;5031928;28;20135;-76
2022/11/22 08:33:57;;;;;;;59.35;30.08;;;;;;;-0.95;100.00;152312.25;5042742;28;20037;-75
2022/11/22 08:36:23;;;;;;;62.03;34.38;;;;;;;-0.99;100.00;152303.34;5028472;28;20119;-74
2022/11/22 08:38:49;;;;;;;60.90;29.90;;;;;;;-0.99;100.00;152302.06;5029307;28;20171;-75
2022/11/22 08:41:14;;;;;;;62.78;34.28;;;;;;;-1.02;100.00;152295.72;5032019;28;20064;-74
2022/11/22 08:43:40;;;;;;;63.20;31.02;;;;;;;-0.99;100.00;152303.34;5014803;28;20195;-74
2022/11/22 08:46:06;;;;;;;63.53;34.05;;;;;;;-1.01;100.00;152297.00;5027777;28;20033;-73
2022/11/22 08:48:34;;;;;;;60.83;31.95;;;;;;;-0.93;100.00;152317.34;5046092;28;20028;-75
2022/11/22 08:51:03;;;;;;;55.78;29.92;;;;;;;-0.92;100.00;152318.59;5039245;28;20171;-75
2022/11/22 08:53:31;;;;;;;64.38;33.50;;;;;;;-0.96;100.00;152308.41;5027372;28;20044;-75
2022/11/22 08:55:58;;;;;;;59.25;30.90;;;;;;;-0.93;100.00;152317.34;5029056;28;20038;-74
2022/11/22 08:58:24;;;;;;;59.05;33.67;;;;;;;-0.96;100.00;152309.72;5041333;28;20036;-75
2022/11/22 09:00:49;;;;;;;55.05;30.42;;;;;;;-0.96;100.00;152309.72;5026436;28;20041;-75
2022/11/22 09:03:15;;;;;;;61.00;32.45;;;;;;;-0.91;100.00;152322.41;5039339;28;20449;-75
2022/11/22 09:05:41;;;;;;;59.75;29.10;;;;;;;-0.98;100.00;152305.91;5030614;28;20110;-76
2022/11/22 09:08:06;;;;;;;62.65;32.22;;;;;;;-0.91;100.00;152322.41;5040498;28;20267;-75
2022/11/22 09:10:32;;;;;;;57.47;31.30;;;;;;;-0.90;100.00;152325.00;5031975;28;20553;-75
2022/11/22 09:12:58;;;;;;;55.72;30.90;;;;;;;-0.89;100.00;152326.25;5030309;28;20123;-75
2022/11/22 09:15:23;;;;;;;63.55;33.95;;;;;;;-0.92;100.00;152319.91;5046669;28;20037;-75
2022/11/22 09:17:49;;;;;;;63.60;33.80;;;;;;;-0.80;100.00;152349.16;5049688;28;20047;-75
2022/11/22 09:20:15;;;;;;;60.80;30.08;;;;;;;-0.83;100.00;152342.81;5046157;28;20033;-75
2022/11/22 09:22:40;;;;;;;59.15;32.80;;;;;;;-0.88;100.00;152328.81;5044028;28;20044;-76
2022/11/22 09:25:07;;;;;;;58.30;31.27;;;;;;;-0.86;100.00;152335.16;5047656;28;20052;-75
2022/11/22 09:27:33;;;;;;;58.17;31.48;;;;;;;-0.89;100.00;152327.50;5023779;28;20171;-75
2022/11/22 09:29:59;;;;;;;57.45;32.25;;;;;;;-0.85;100.00;152337.72;5030370;28;20051;-75
2022/11/22 09:32:25;;;;;;;55.55;29.17;;;;;;;-0.80;100.00;152349.16;5042525;28;20029;-75
2022/11/22 09:34:50;;;;;;;55.00;30.42;;;;;;;-0.78;100.00;152354.25;5027600;28;20048;-75
2022/11/22 09:37:18;;;;;;;62.25;34.38;;;;;;;-0.74;100.00;152363.16;5025631;28;20044;-75
2022/11/22 09:39:45;;;;;;;61.72;34.60;;;;;;;-0.83;100.00;152342.81;5029948;28;20048;-75
2022/11/22 09:42:33;;;;;;;60.53;32.40;;;;;;;-0.76;100.00;152358.06;5043462;28;20036;-75
2022/11/22 09:45:02;;;;;;;59.92;32.15;;;;;;;-0.77;100.00;152356.81;5028231;28;20033;-75
2022/11/22 09:47:48;;;;;;;61.40;32.75;;;;;;;-0.71;100.00;152370.81;5042417;28;20037;-76
2022/11/22 09:50:29;;;;;;;57.38;29.73;;;;;;;-0.79;100.00;152353.00;5030779;28;20394;-74
2022/11/22 09:53:23;;;;;;;55.72;33.30;;;;;;;-0.71;100.00;152370.81;5011381;28;20049;-74
2022/11/22 09:55:58;;;;;;;57.95;31.25;;;;;;;-0.68;100.00;152379.72;5023824;28;20041;-75
2022/11/22 09:58:29;;;;;;;59.58;34.38;;;;;;;-0.63;100.00;152392.44;5027266;28;20052;-76
2022/11/22 10:01:02;;;;;;;58.58;32.65;;;;;;;-0.58;100.00;152403.91;5047598;28;20075;-76
2022/11/22 10:03:33;;;;;;;;;;;;;;;-0.58;100.00;152403.91;5028600;28;20217;-76
2022/11/22 10:06:04;;;;;;;54.92;27.00;;;;;;;-0.57;100.00;152406.44;5023278;28;19927;-76
2022/11/22 10:08:47;;;;;;;60.67;31.75;;;;;;;-0.56;100.00;152407.75;5014344;28;20041;-75
2022/11/22 10:11:24;;;;;;;55.45;28.58;;;;;;;-0.53;100.00;152415.34;5047434;28;20047;-76
2022/11/22 10:13:55;;;;;;;67.22;32.95;;;;;;;-0.52;100.00;152417.91;5031062;28;20072;-76
2022/11/22 10:16:38;;;;;;;71.05;40.10;;;;;;;-0.52;100.00;152417.91;5029835;28;20040;-76
2022/11/22 10:19:15;;;;;;;68.40;31.65;;;;;;;-0.52;100.00;152417.91;5031286;28;20029;-76
2022/11/22 10:21:42;;;;;;;61.42;32.60;;;;;;;-0.47;100.00;152430.63;5004955;28;20037;-75
2022/11/22 10:24:16;;;;;;;69.18;36.47;;;;;;;-0.46;100.00;152433.19;5074844;28;20037;-75
2022/11/22 10:26:42;;;;;;;68.10;36.63;;;;;;;-0.48;100.00;152429.34;5040282;28;20041;-77
2022/11/22 10:29:14;;;;;;;96.82;48.13;;;;;;;-0.45;100.00;152435.75;5030349;28;20124;-76
2022/11/22 10:31:53;;;;;;;107.95;52.35;;;;;;;-0.41;100.00;152445.94;5030274;28;20182;-75
2022/11/22 10:34:43;;;;;;;71.60;37.88;;;;;;;-0.36;100.00;152458.63;5030698;28;20557;-74
2022/11/22 10:37:42;;;;;;;69.10;35.80;;;;;;;-0.33;100.00;152466.28;5022585;28;20036;-75
2022/11/22 10:40:24;;;;;;;84.43;42.97;;;;;;;-0.32;100.00;152467.53;5026526;28;20402;-75
2022/11/22 10:43:21;;;;;;;61.27;29.43;;;;;;;-0.34;100.00;152463.75;5011412;28;20660;-75
2022/11/22 10:46:19;;;;;;;64.95;33.83;;;;;;;-0.35;100.00;152461.19;5030436;28;20135;-75
2022/11/22 10:49:19;;;;;;;60.53;31.40;;;;;;;-0.21;100.00;152495.56;5004351;28;20041;-75
2022/11/22 10:52:22;;;;;;;58.47;31.33;;;;;;;-0.22;100.00;152493.03;5026620;28;20053;-74
2022/11/22 10:55:04;;;;;;;57.55;30.65;;;;;;;-0.13;100.00;152514.66;5009208;28;20102;-76
2022/11/22 10:57:50;;;;;;;61.45;34.63;;;;;;;-0.11;100.00;152521.03;5044610;28;20028;-75
2022/11/22 11:00:24;;;;;;;53.90;28.55;;;;;;;-0.10;100.00;152522.31;5042262;28;20151;-73
2022/11/22 11:03:15;;;;;;;61.55;32.70;;;;;;;-0.08;100.00;152527.41;5029059;28;20056;-75
2022/11/22 11:05:47;;;;;;;61.80;34.22;;;;;;;-0.02;100.00;152542.66;5024657;28;20115;-75
2022/11/22 11:08:18;;;;;;;61.47;34.22;;;;;;;0.04;100.00;152556.69;5028580;28;20569;-74
2022/11/22 11:10:45;;;;;;;60.53;33.03;;;;;;;0.03;100.00;152554.16;5026424;28;20164;-75
2022/11/22 11:13:19;;;;;;;62.25;33.90;;;;;;;0.11;100.00;152574.50;5029281;28;20056;-76
2022/11/22 11:15:49;;;;;;;59.97;33.03;;;;;;;0.03;100.00;152554.16;5048191;28;20540;-74
2022/11/22 11:18:25;;;;;;;62.35;35.25;;;;;;;0.12;100.00;152578.34;5034891;28;20097;-75
2022/11/22 11:20:52;;;;;;;64.95;33.72;;;;;;;0.12;100.00;152577.09;5031830;28;20398;-74
2022/11/22 11:23:18;;;;;;;56.13;32.58;;;;;;;0.14;100.00;152582.19;5017648;28;20028;-74